Tropical Cyclones
[Index]
Main Index Home Page Stock Weather Photos Extreme Storms Discussion Storm News and Storm Chasing Reports Tropical Cyclones / Hurricanes / Typhoons Weather Data and Links Wild Fires / Bushfires Weather Observation Techniques Weather Picture Catalogue Tornado Pictures and Reports Stock Video Footage and DVDs for sale
Season 2004-2005 Tropical Cyclone ISANG Track Map
Season 2004-2005 Summaries: [BoM-AU] [JTWC-AU] [JTWC-SIO] [JTWC-SPAC] [JTWC-SH]
<<- Previous TC | JTWC 2004-2005 Season | Next TC ->>

click for intensity scale information  Lat/long Grid: Show Hide

 Date Labels: Show Hide

Joint Typhoon Warning Centre Cyclone Data

Name: ISANG

29 Mar 2005 12:00 UTC to 07 Apr 2005 06:00 UTC

    date/time    lat    long     hPa   cat  kts
2005-03-29 12    9.8    85.0    1006         15          
2005-03-29 18   10.1    84.8    1004         20          
2005-03-30 00   10.5    84.8    1004         20          
2005-03-30 06   11.0    84.7    1004         20          
2005-03-30 12   11.1    84.2    1004         20          
2005-03-30 18   11.2    83.6    1004         20          
2005-03-31 00   11.1    82.7    1004         20          
2005-03-31 06   11.1    81.4    1004         20          
2005-03-31 12   11.3    80.3    1004         20          
2005-03-31 18   11.4    79.4    1004         20          
2005-04-01 00   11.5    78.8    1004         20          
2005-04-01 06   11.8    78.1    1004         20          
2005-04-01 12   12.1    77.0    1004         20          
2005-04-01 18   12.4    76.0    1002         25          
2005-04-02 00   12.8    75.1    1002         25          
2005-04-02 06   13.5    74.8    1002         25          
2005-04-02 12   14.1    74.4    1002         25          
2005-04-02 18   14.5    73.6    1002         25          
2005-04-03 00   14.6    72.5    1002         25          
2005-04-03 06   14.8    71.2    1002         25          
2005-04-03 12   15.1    70.6    1000         30          
2005-04-03 18   15.8    70.0     997         35          
2005-04-04 00   16.7    69.7     994    1    40          
2005-04-04 06   17.4    69.1     994    1    40          
2005-04-04 12   17.8    68.1     999         35          
2005-04-04 18   18.5    67.3     994    1    40          
2005-04-05 00   19.1    66.4     994    1    40          
2005-04-05 06   19.8    65.9     997         35          
2005-04-05 12   20.5    65.6     997         35          
2005-04-05 18   21.5    65.6     994    1    40          
2005-04-06 00   22.9    66.0     987    1    50          
2005-04-06 06   24.5    66.6     984    2    55          
2005-04-06 06   24.5    66.6     984    2    55          
2005-04-06 12   26.3    67.4     984    2    55          
2005-04-06 12   26.3    67.4     984    2    55          
2005-04-06 18   28.2    68.5     984    2    55          
2005-04-06 18   28.2    68.5     984    2    55          
2005-04-07 00   30.1    69.5     991    1    45          
2005-04-07 06   32.3    70.0     991    1    45          
Winds are 1-min average.

Tropical cyclone tracks developed by Michael Bath using data from the Joint Typhoon Warning Centre Best Tracks and Google Maps.


[Australian Severe Weather index] [Copyright Notice] [Email Contacts] [Search This Site] [Privacy Policy]
Document: tropical_cyclone_isang.htm Updated: 28 June 2017